Ana Sayfa
METAR-TAF:

METAR-TAF

Havaalanları :

Río Grande, Arjantin

Enlem: 53-48S, Boylam: 067-45W, yükseklik: 13 m

METAR: eksik

Saat: 02:43 (05:43 UTC)

Tahmin

Rapor saat 23:00 UTC de 6 saat ve 43 dakika önce yapıldı.
Ayın 27'si saat 00 UTC'den ayın 27'si saat 24 UTC'ye kadar geçerli Tahmin
Rüzgar değişken yönden 3 kt
Görüş mesafesi: 0300 m
700 ft yükseklikte çok bulutlu
Donan sis
Olasılık 40% :
Geçici
ayın 27'si saat 00 UTC'den ayın 27'si saat 06 UTC'ye kadar
Görüş mesafesi: 2000 m
1000 ft yükseklikte parçalı bulutlu
2000 ft yükseklikte parçalı çok bulutlu
Pus
Dönüşüyor
ayın 27'si saat 16 UTC'den ayın 27'si saat 18 UTC'ye kadar
Rüzgar batı/kuzeybatıdan 10 kt
Görüş mesafesi 10 km veya daha fazla
2000 ft yükseklikte parçalı bulutlu

TAF: SAWE 262300Z 2700/2724 VRB03KT 0300 FZFG OVC007 TX04/2718Z TNM03/2709Z PROB40 TEMPO 2700/2706 2000 BR SCT010 BKN020 BECMG 2716/2718 30010KT 9999 NSW SCT020

4.000'den fazla havaalanı için hava durumu gözlemleri ve tahminleri (METAR ve TAF raporları).

Kullanılabilir istasyonlar harita üzerinde sarı ve kırmızı noktalarla gösterilir.

İstasyonun adını görmek için fareyi noktanın üzerinde gezdirin.

Sonrasında hava gözlem ve tahminlerini görmek için tıklayın.

Haritayı değiştirmek için: yaklaştırmak için siyah artı işaretli yeşil düğmeye ve uzaklaştırmak için de eksi işaretli düğmeye hızla tıklayın; bitişik haritalar için yeşil okları kullanın.


METAR-TAF: